Estación Meteorológica Peña el Pijo (Robertgarden) [ 11/14/19 11:51:04 CET ]

Fecha Hora Presion(HPa) Temp (°C) Humedad % Rocio (°C) Viento ( m/s) Direccion Lluvia 1Hora(mm) Lluvia 24H(mm) LLuvia Total(mm)
2019-Jul-18 01:01:50 1010.000 15.8 82 12.8       1.55 344.18
2019-Jul-18 02:02:03 1010.100 14.4 83 11.5       1.55 344.18
2019-Jul-18 03:01:40 1009.800 14.3 84 11.6       1.55 344.18
2019-Jul-18 04:01:46 1009.600 14.1 82 11.1       1.55 344.18
2019-Jul-18 05:03:49 1009.400 13.5 81 10.3       1.55 344.18
2019-Jul-18 06:01:43 1009.600 13.3 80 9.9       1.55 344.18
2019-Jul-18 07:01:38 1009.500 11.9 81 8.8       1.55 344.18
2019-Jul-18 08:01:48 1009.700 13.2 83 10.3       1.55 344.18
2019-Jul-18 09:01:37 1009.800 18.4 72 13.3       1.55 344.18
2019-Jul-18 10:01:59 1010.100 24.3 56 14.9       1.55 344.18
2019-Jul-18 11:01:46 1010.300 29.3 38 13.5       1.55 344.18
2019-Jul-18 12:01:48 1010.300 29.6 35 12.4       1.55 344.18
2019-Jul-18 13:01:53 1009.800 31.6 32 12.8       1.55 344.18
2019-Jul-18 14:01:52 1009.900 30.9 30 11.3       1.55 344.18
2019-Jul-18 15:02:00 1009.600 33.7 30 13.8       1.55 344.18
2019-Jul-18 16:01:52 1009.100 31.8 32 13.0       1.55 344.18
2019-Jul-18 17:01:44 1009.200 32.3 31 13.0       1.55 344.18
2019-Jul-18 18:01:43 1008.900 32.0 28 11.1         344.18
2019-Jul-18 19:01:47 1008.800 30.8 30 11.2         344.18
2019-Jul-18 20:01:54 1009.100 29.5 31 10.6         344.18
2019-Jul-18 21:01:57 1009.500 26.7 36 10.3         344.18
2019-Jul-18 22:02:00 1010.000 24.7 42 10.9         344.18
2019-Jul-18 23:01:49 1010.600 21.5 52 11.2         344.18

Temperatura Máxima:33°    Temperatura Mínima:11°
Presión Máxima:1010.600 Hpa    Presión Mínima:1008.800 Hpa


Volver